createdAt,value
2023-04-15T00:01:40.539Z,4.21
2023-04-15T00:04:07.145Z,4.21
2023-04-15T00:06:33.908Z,4.22
2023-04-15T00:09:01.068Z,4.22
2023-04-15T00:11:27.950Z,4.20
2023-04-15T00:13:56.339Z,4.17
2023-04-15T00:16:23.036Z,4.18
2023-04-15T00:18:49.852Z,4.19
2023-04-15T00:21:18.031Z,4.20
2023-04-15T00:23:44.563Z,4.21
2023-04-15T00:26:11.036Z,4.24
2023-04-15T00:28:37.621Z,4.25
2023-04-15T00:31:04.421Z,4.28
2023-04-15T00:33:36.703Z,4.30
2023-04-15T00:36:05.512Z,4.33
2023-04-15T00:38:32.021Z,4.36
2023-04-15T00:40:59.094Z,4.37
2023-04-15T00:43:30.996Z,4.39
2023-04-15T00:45:59.612Z,4.42
2023-04-15T00:48:28.440Z,4.40
2023-04-15T00:50:55.139Z,4.40
2023-04-15T00:53:21.697Z,4.38
2023-04-15T00:55:48.281Z,4.36
2023-04-15T00:58:15.280Z,4.36
2023-04-15T01:05:58.838Z,4.25
2023-04-15T01:08:28.346Z,4.21
2023-04-15T01:10:57.124Z,4.16
2023-04-15T01:13:28.812Z,4.13
2023-04-15T01:15:56.942Z,4.09
2023-04-15T01:18:23.940Z,4.09
2023-04-15T01:20:50.540Z,4.06
2023-04-15T01:23:17.514Z,4.05
2023-04-15T01:25:48.565Z,4.04
2023-04-15T01:28:19.635Z,3.98
2023-04-15T01:30:46.151Z,3.95
2023-04-15T01:33:12.665Z,3.95
2023-04-15T01:35:45.494Z,3.92
2023-04-15T01:38:12.444Z,3.93
2023-04-15T01:40:39.611Z,3.92
2023-04-15T01:43:06.192Z,3.94
2023-04-15T01:45:32.683Z,3.93
2023-04-15T01:47:59.250Z,3.93
2023-04-15T01:50:33.531Z,3.96
2023-04-15T01:52:59.993Z,3.97
2023-04-15T01:55:27.282Z,3.94
2023-04-15T01:57:55.724Z,3.93
2023-04-15T02:00:23.102Z,3.91
2023-04-15T02:02:49.706Z,3.91
2023-04-15T02:05:16.430Z,3.92
2023-04-15T02:07:43.654Z,3.92
2023-04-15T02:10:13.854Z,3.89
2023-04-15T02:12:40.886Z,3.87
2023-04-15T02:15:08.027Z,3.86
2023-04-15T02:17:35.820Z,3.87
2023-04-15T02:20:04.591Z,3.89
2023-04-15T02:22:33.053Z,3.91
2023-04-15T02:24:59.587Z,3.91
2023-04-15T02:27:28.414Z,3.91
2023-04-15T02:29:54.986Z,3.91
2023-04-15T02:32:23.339Z,3.91
2023-04-15T02:34:50.097Z,3.93
2023-04-15T02:37:17.119Z,3.96
2023-04-15T02:39:43.976Z,3.96
2023-04-15T02:42:12.267Z,3.98
2023-04-15T02:44:39.368Z,3.99
2023-04-15T02:47:07.156Z,4.00
2023-04-15T02:49:35.637Z,4.00
2023-04-15T02:52:02.351Z,4.00
2023-04-15T02:54:29.154Z,3.98
2023-04-15T02:56:56.473Z,3.98
2023-04-15T02:59:23.045Z,3.95
2023-04-15T03:01:49.735Z,3.96
2023-04-15T03:04:16.659Z,3.95
2023-04-15T03:06:43.692Z,3.93
2023-04-15T03:09:10.336Z,3.93
2023-04-15T03:11:42.416Z,3.93
2023-04-15T03:14:08.971Z,3.92
2023-04-15T03:16:35.557Z,3.92
2023-04-15T03:19:06.535Z,3.90
2023-04-15T03:21:33.159Z,3.90
2023-04-15T03:23:59.613Z,3.90
2023-04-15T03:26:30.595Z,3.94
2023-04-15T03:28:57.960Z,3.96
2023-04-15T03:31:26.908Z,4.04
2023-04-15T03:33:55.159Z,4.08
2023-04-15T03:36:21.789Z,4.17
2023-04-15T03:38:49.388Z,4.23
2023-04-15T03:41:23.869Z,4.32
2023-04-15T03:43:52.151Z,4.38
2023-04-15T03:46:22.402Z,4.37
2023-04-15T03:48:49.045Z,4.34
2023-04-15T03:51:15.575Z,4.36
2023-04-15T03:53:42.051Z,4.39
2023-04-15T03:56:08.779Z,4.45
2023-04-15T03:58:35.293Z,4.48
2023-04-15T04:01:02.119Z,4.52
2023-04-15T04:03:35.352Z,4.51
2023-04-15T04:06:02.418Z,4.48
2023-04-15T04:08:28.912Z,4.45
2023-04-15T04:10:57.199Z,4.44
2023-04-15T04:13:24.270Z,4.50
2023-04-15T04:15:50.896Z,4.65
2023-04-15T04:18:19.223Z,4.81
2023-04-15T04:20:45.804Z,4.93
2023-04-15T04:23:12.320Z,5.08
2023-04-15T04:25:43.429Z,5.15
2023-04-15T04:28:09.951Z,5.20
2023-04-15T04:30:36.647Z,5.23
2023-04-15T04:33:05.505Z,5.26
2023-04-15T04:35:34.876Z,5.26
2023-04-15T04:38:04.107Z,5.32
2023-04-15T04:40:31.372Z,5.38
2023-04-15T04:42:57.882Z,5.37
2023-04-15T04:45:24.388Z,5.37
2023-04-15T04:47:52.670Z,5.33
2023-04-15T04:50:21.316Z,5.35
2023-04-15T04:52:47.830Z,5.34
2023-04-15T04:55:14.613Z,5.36
2023-04-15T04:57:41.532Z,5.36
2023-04-15T05:00:09.056Z,5.34
2023-04-15T05:02:38.326Z,5.30
2023-04-15T05:05:07.037Z,5.23
2023-04-15T05:07:33.769Z,5.22
2023-04-15T05:10:00.578Z,5.15
2023-04-15T05:12:27.172Z,5.10
2023-04-15T05:14:53.628Z,5.04
2023-04-15T05:17:20.301Z,4.99
2023-04-15T05:19:46.836Z,4.92
2023-04-15T05:22:13.327Z,4.90
2023-04-15T05:24:39.979Z,4.90
2023-04-15T05:27:06.505Z,4.85
2023-04-15T05:29:33.030Z,4.78
2023-04-15T05:31:59.669Z,4.75
2023-04-15T05:34:26.406Z,4.72
2023-04-15T05:36:52.917Z,4.72
2023-04-15T05:39:19.592Z,4.71
2023-04-15T05:41:48.514Z,4.71
2023-04-15T05:44:15.055Z,4.72
2023-04-15T05:46:42.028Z,4.74
2023-04-15T05:49:08.514Z,4.79
2023-04-15T05:51:35.036Z,4.83
2023-04-15T05:54:08.512Z,4.84
2023-04-15T05:56:35.195Z,4.88
2023-04-15T05:59:01.824Z,4.91
2023-04-15T06:01:28.472Z,4.92
2023-04-15T06:03:55.561Z,4.92
2023-04-15T06:06:24.565Z,4.93
2023-04-15T06:08:52.788Z,4.94
2023-04-15T06:11:21.442Z,4.95
2023-04-15T06:13:51.776Z,4.97
2023-04-15T06:16:18.326Z,4.98
2023-04-15T06:18:49.496Z,5.02
2023-04-15T06:21:16.067Z,5.03
2023-04-15T06:23:42.974Z,5.06
2023-04-15T06:26:09.507Z,5.08
2023-04-15T06:28:36.162Z,5.07
2023-04-15T06:31:03.223Z,5.08
2023-04-15T06:33:29.702Z,5.05
2023-04-15T06:35:56.195Z,5.04
2023-04-15T06:38:24.468Z,5.03
2023-04-15T06:40:51.063Z,5.02
2023-04-15T06:43:20.252Z,5.02
2023-04-15T06:45:49.595Z,5.02
2023-04-15T06:48:16.286Z,5.02
2023-04-15T06:50:42.829Z,5.04
2023-04-15T06:53:09.522Z,5.05
2023-04-15T06:55:40.253Z,5.08
2023-04-15T06:58:06.863Z,5.10
2023-04-15T07:00:35.858Z,5.09
2023-04-15T07:03:03.860Z,5.12
2023-04-15T07:05:31.072Z,5.16
2023-04-15T07:08:04.254Z,5.23
2023-04-15T07:10:30.952Z,5.28
2023-04-15T07:12:57.455Z,5.33
2023-04-15T07:15:25.700Z,5.39
2023-04-15T07:17:52.226Z,5.42
2023-04-15T07:20:18.936Z,5.45
2023-04-15T07:22:47.206Z,5.47
2023-04-15T07:25:13.691Z,5.49
2023-04-15T07:27:40.204Z,5.56
2023-04-15T07:30:09.500Z,5.60
2023-04-15T07:32:41.125Z,5.62
2023-04-15T07:35:08.475Z,5.59
2023-04-15T07:37:37.253Z,5.59
2023-04-15T07:40:05.075Z,5.62
2023-04-15T07:42:31.759Z,5.67
2023-04-15T07:45:10.307Z,5.66
2023-04-15T07:47:42.170Z,5.65
2023-04-15T07:50:11.216Z,5.68
2023-04-15T07:52:42.707Z,5.65
2023-04-15T07:55:09.809Z,5.62
2023-04-15T07:57:38.638Z,5.59
2023-04-15T08:00:07.816Z,5.60
2023-04-15T08:02:35.891Z,5.61
2023-04-15T08:05:04.618Z,5.62
2023-04-15T08:07:31.841Z,5.65
2023-04-15T08:10:02.384Z,5.69
2023-04-15T08:12:28.956Z,5.74
2023-04-15T08:14:56.889Z,5.79
2023-04-15T08:17:24.084Z,5.84
2023-04-15T08:19:50.815Z,5.87
2023-04-15T08:22:20.626Z,5.92
2023-04-15T08:24:48.423Z,5.93
2023-04-15T08:27:15.018Z,6.02
2023-04-15T08:29:43.252Z,6.10
2023-04-15T08:32:09.723Z,6.20
2023-04-15T08:34:36.384Z,6.30
2023-04-15T08:37:04.909Z,6.41
2023-04-15T08:39:31.466Z,6.53
2023-04-15T08:42:02.775Z,6.67
2023-04-15T08:44:33.539Z,6.83
2023-04-15T08:47:04.002Z,6.95
2023-04-15T08:49:31.964Z,7.12
2023-04-15T08:52:01.381Z,7.20
2023-04-15T08:54:31.829Z,7.30
2023-04-15T08:56:58.838Z,7.39
2023-04-15T08:59:25.955Z,7.45
2023-04-15T09:01:53.366Z,7.52
2023-04-15T09:04:20.088Z,7.56
2023-04-15T09:06:49.296Z,7.67
2023-04-15T09:09:15.792Z,7.70
2023-04-15T09:11:42.688Z,7.74
2023-04-15T09:14:13.940Z,7.78
2023-04-15T09:17:00.884Z,7.86
2023-04-15T09:19:32.237Z,7.94
2023-04-15T09:21:59.669Z,8.00
2023-04-15T09:24:41.784Z,8.04
2023-04-15T09:27:08.343Z,8.07
2023-04-15T09:29:34.875Z,8.07
2023-04-15T09:32:12.471Z,8.09
2023-04-15T09:34:39.170Z,8.08
2023-04-15T09:37:07.590Z,8.07
2023-04-15T09:39:53.882Z,8.14
2023-04-15T09:42:26.913Z,8.13
2023-04-15T09:44:53.617Z,8.17
2023-04-15T09:47:36.039Z,8.19
2023-04-15T09:50:02.753Z,8.26
2023-04-15T09:52:30.076Z,8.30
2023-04-15T09:54:58.972Z,8.37
2023-04-15T09:57:25.783Z,8.37
2023-04-15T09:59:52.349Z,8.33
2023-04-15T10:02:21.521Z,8.33
2023-04-15T10:04:48.874Z,8.35
2023-04-15T10:07:15.835Z,8.38
2023-04-15T10:09:52.125Z,8.39
2023-04-15T10:12:19.923Z,8.32
2023-04-15T10:14:56.873Z,8.33
2023-04-15T10:17:26.385Z,8.28
2023-04-15T10:19:55.047Z,8.22
2023-04-15T10:22:25.128Z,8.13
2023-04-15T10:24:52.593Z,7.99
2023-04-15T10:27:20.416Z,7.94
2023-04-15T10:29:52.678Z,7.89
2023-04-15T10:32:21.299Z,7.86
2023-04-15T10:34:52.452Z,7.81
2023-04-15T10:37:24.285Z,7.75
2023-04-15T10:39:51.149Z,7.70
2023-04-15T10:42:19.765Z,7.60
2023-04-15T10:44:54.019Z,7.51
2023-04-15T10:47:22.054Z,7.47
2023-04-15T10:49:58.892Z,7.45
2023-04-15T10:52:28.009Z,7.46
2023-04-15T10:55:18.829Z,7.47
2023-04-15T10:57:45.703Z,7.40
2023-04-15T11:00:16.581Z,7.35
2023-04-15T11:02:48.820Z,7.38
2023-04-15T11:05:17.146Z,7.42
2023-04-15T11:07:55.217Z,7.42
2023-04-15T11:10:31.090Z,7.44
2023-04-15T11:13:13.874Z,7.47
2023-04-15T11:15:42.330Z,7.58
2023-04-15T11:18:12.206Z,7.68
2023-04-15T11:20:40.428Z,7.80
2023-04-15T11:23:14.745Z,7.86
2023-04-15T11:25:44.773Z,8.00
2023-04-15T11:28:12.504Z,8.05
2023-04-15T11:30:39.984Z,8.12
2023-04-15T11:33:13.592Z,8.16
2023-04-15T11:35:41.983Z,8.29
2023-04-15T11:38:25.149Z,8.35
2023-04-15T11:40:54.540Z,8.45
2023-04-15T11:43:22.804Z,8.36
2023-04-15T11:45:56.571Z,8.45
2023-04-15T11:48:28.306Z,8.46
2023-04-15T11:51:08.351Z,8.46
2023-04-15T11:53:49.864Z,8.47
2023-04-15T11:56:23.740Z,8.54
2023-04-15T11:58:57.072Z,8.62
2023-04-15T12:01:44.045Z,8.71
2023-04-15T12:04:23.533Z,8.82
2023-04-15T12:06:51.888Z,8.89
2023-04-15T12:09:20.286Z,8.91
2023-04-15T12:11:48.020Z,9.03
2023-04-15T12:14:31.267Z,9.17
2023-04-15T12:17:05.355Z,9.34
2023-04-15T12:19:36.620Z,9.47
2023-04-15T12:22:13.385Z,9.48
2023-04-15T12:24:46.030Z,9.56
2023-04-15T12:27:14.388Z,9.46
2023-04-15T12:29:43.169Z,9.48
2023-04-15T12:32:14.155Z,9.53
2023-04-15T12:34:42.519Z,9.59
2023-04-15T12:37:11.541Z,9.61
2023-04-15T12:39:40.162Z,9.65
2023-04-15T12:42:07.664Z,9.74
2023-04-15T12:44:35.767Z,9.82
2023-04-15T12:47:04.233Z,9.87
2023-04-15T12:49:32.593Z,10.04
2023-04-15T12:52:00.732Z,10.09
2023-04-15T12:54:31.565Z,9.92
2023-04-15T12:56:59.261Z,9.88
2023-04-15T12:59:26.000Z,9.77
2023-04-15T13:01:54.600Z,9.78
2023-04-15T13:04:22.340Z,9.92
2023-04-15T13:06:52.631Z,10.02
2023-04-15T13:09:19.323Z,10.10
2023-04-15T13:11:46.007Z,10.09
2023-04-15T13:14:13.100Z,10.14
2023-04-15T13:16:41.780Z,10.07
2023-04-15T13:19:08.589Z,10.05
2023-04-15T13:21:36.260Z,10.17
2023-04-15T13:24:04.396Z,10.22
2023-04-15T13:26:31.718Z,10.32
2023-04-15T13:28:58.283Z,10.27
2023-04-15T13:31:29.487Z,10.19
2023-04-15T13:33:57.151Z,10.14
2023-04-15T13:36:23.636Z,10.06
2023-04-15T13:38:52.239Z,9.99
2023-04-15T13:41:18.959Z,9.94
2023-04-15T13:43:47.701Z,9.85
2023-04-15T13:46:16.409Z,9.79
2023-04-15T13:48:42.996Z,9.72
2023-04-15T13:51:09.732Z,9.66
2023-04-15T13:53:39.813Z,9.61
2023-04-15T13:56:07.730Z,9.55
2023-04-15T13:58:34.361Z,9.45
2023-04-15T14:01:05.197Z,9.40
2023-04-15T14:03:32.823Z,9.35
2023-04-15T14:05:59.608Z,9.36
2023-04-15T14:08:32.670Z,9.34
2023-04-15T14:10:59.196Z,9.34
2023-04-15T14:13:25.926Z,9.29
2023-04-15T14:16:00.807Z,9.27
2023-04-15T14:18:27.396Z,9.20
2023-04-15T14:20:57.432Z,9.20
2023-04-15T14:23:25.730Z,9.24
2023-04-15T14:25:53.223Z,9.27
2023-04-15T14:28:21.630Z,9.32
2023-04-15T14:30:50.451Z,9.40
2023-04-15T14:33:17.173Z,9.44
2023-04-15T14:35:43.700Z,9.61
2023-04-15T14:38:11.589Z,9.76
2023-04-15T14:40:38.357Z,9.92
2023-04-15T14:43:04.857Z,10.09
2023-04-15T14:45:31.508Z,10.29
2023-04-15T14:47:59.334Z,10.58
2023-04-15T14:50:25.982Z,10.88
2023-04-15T14:52:52.571Z,11.00
2023-04-15T14:55:19.082Z,10.97
2023-04-15T14:57:45.675Z,11.00
2023-04-15T15:00:15.946Z,11.04
2023-04-15T15:02:43.172Z,11.02
2023-04-15T15:05:10.838Z,10.91
2023-04-15T15:07:41.570Z,10.92
2023-04-15T15:10:08.265Z,10.78
2023-04-15T15:12:34.885Z,10.66
2023-04-15T15:15:15.779Z,10.61
2023-04-15T15:17:52.021Z,10.64
2023-04-15T15:20:23.808Z,10.69
2023-04-15T15:22:50.723Z,10.76
2023-04-15T15:25:17.401Z,10.82
2023-04-15T15:27:44.108Z,10.87
2023-04-15T15:30:11.246Z,10.87
2023-04-15T15:32:41.042Z,11.15
2023-04-15T15:35:09.912Z,11.38
2023-04-15T15:37:37.378Z,11.59
2023-04-15T15:40:08.008Z,11.79
2023-04-15T15:42:34.799Z,11.95
2023-04-15T15:45:04.121Z,12.06
2023-04-15T15:47:30.879Z,12.27
2023-04-15T15:49:57.676Z,12.15
2023-04-15T15:52:24.188Z,12.12
2023-04-15T15:54:50.715Z,11.88
2023-04-15T15:57:21.781Z,11.78
2023-04-15T15:59:48.267Z,11.76
2023-04-15T16:02:14.917Z,11.68
2023-04-15T16:04:45.324Z,11.58
2023-04-15T16:07:12.094Z,11.56
2023-04-15T16:09:41.171Z,11.52
2023-04-15T16:12:09.432Z,11.46
2023-04-15T16:14:36.522Z,11.39
2023-04-15T16:17:03.005Z,11.28
2023-04-15T16:19:29.704Z,11.21
2023-04-15T16:21:56.636Z,11.18
2023-04-15T16:24:23.200Z,11.04
2023-04-15T16:26:51.491Z,10.98
2023-04-15T16:29:18.001Z,10.91
2023-04-15T16:31:44.583Z,10.87
2023-04-15T16:34:17.800Z,10.96
2023-04-15T16:36:44.503Z,11.03
2023-04-15T16:39:11.077Z,11.07
2023-04-15T16:41:38.732Z,11.05
2023-04-15T16:44:05.542Z,11.03
2023-04-15T16:46:32.269Z,11.00
2023-04-15T16:48:58.971Z,10.95
2023-04-15T16:51:25.914Z,10.86
2023-04-15T16:53:52.409Z,10.84
2023-04-15T16:56:21.536Z,10.81
2023-04-15T16:58:48.214Z,10.75
2023-04-15T17:01:14.782Z,10.79
2023-04-15T17:03:41.608Z,10.80
2023-04-15T17:06:08.201Z,10.82
2023-04-15T17:08:34.702Z,10.82
2023-04-15T17:11:09.037Z,10.78
2023-04-15T17:13:35.573Z,10.79
2023-04-15T17:16:02.527Z,10.79
2023-04-15T17:18:33.772Z,10.74
2023-04-15T17:21:00.338Z,10.74
2023-04-15T17:23:27.318Z,10.69
2023-04-15T17:25:54.149Z,10.64
2023-04-15T17:28:20.656Z,10.63
2023-04-15T17:30:47.461Z,10.55
2023-04-15T17:33:26.139Z,10.52
2023-04-15T17:36:02.576Z,10.49
2023-04-15T17:38:29.304Z,10.41
2023-04-15T17:40:55.758Z,10.32
2023-04-15T17:43:22.296Z,10.21
2023-04-15T17:45:48.945Z,10.09
2023-04-15T17:48:18.914Z,9.98
2023-04-15T17:50:45.822Z,9.93
2023-04-15T17:53:14.523Z,9.86
2023-04-15T17:55:41.103Z,9.84
2023-04-15T17:58:07.576Z,9.83
2023-04-15T18:00:36.600Z,9.84
2023-04-15T18:03:03.339Z,9.83
2023-04-15T18:05:30.271Z,9.84
2023-04-15T18:07:58.491Z,9.81
2023-04-15T18:10:25.034Z,9.79
2023-04-15T18:12:51.785Z,9.77
2023-04-15T18:15:18.867Z,9.74
2023-04-15T18:17:45.667Z,9.69
2023-04-15T18:20:12.911Z,9.65
2023-04-15T18:22:39.590Z,9.61
2023-04-15T18:25:08.691Z,9.58
2023-04-15T18:27:35.836Z,9.54
2023-04-15T18:30:04.570Z,9.52
2023-04-15T18:32:32.683Z,9.49
2023-04-15T18:34:59.448Z,9.46
2023-04-15T18:37:29.458Z,9.43
2023-04-15T18:39:56.090Z,9.40
2023-04-15T18:42:23.794Z,9.37
2023-04-15T18:44:50.459Z,9.34
2023-04-15T18:47:17.098Z,9.31
2023-04-15T18:49:43.914Z,9.28
2023-04-15T18:52:13.475Z,9.24
2023-04-15T18:54:40.017Z,9.21
2023-04-15T18:57:06.976Z,9.18
2023-04-15T19:02:35.435Z,9.13
2023-04-15T19:05:04.260Z,9.10
2023-04-15T19:07:31.290Z,9.07
2023-04-15T19:09:59.624Z,9.05
2023-04-15T19:12:26.181Z,9.02
2023-04-15T19:14:53.021Z,8.97
2023-04-15T19:17:19.873Z,8.96
2023-04-15T19:19:48.631Z,8.93
2023-04-15T19:22:15.940Z,8.89
2023-04-15T19:24:47.092Z,8.85
2023-04-15T19:27:13.893Z,8.82
2023-04-15T19:29:40.695Z,8.79
2023-04-15T19:32:09.473Z,8.75
2023-04-15T19:34:36.036Z,8.73
2023-04-15T19:37:02.551Z,8.71
2023-04-15T19:39:35.930Z,8.69
2023-04-15T19:42:02.836Z,8.67
2023-04-15T19:44:31.707Z,8.66
2023-04-15T19:47:00.104Z,8.64
2023-04-15T19:49:26.965Z,8.64
2023-04-15T19:51:53.488Z,8.61
2023-04-15T19:54:21.732Z,8.59
2023-04-15T19:56:48.609Z,8.57
2023-04-15T19:59:15.123Z,8.56
2023-04-15T20:01:43.433Z,8.53
2023-04-15T20:04:10.486Z,8.50
2023-04-15T20:06:37.084Z,8.49
2023-04-15T20:09:07.377Z,8.50
2023-04-15T20:12:06.132Z,8.49
2023-04-15T20:14:22.086Z,8.49
2023-04-15T20:16:48.825Z,8.44
2023-04-15T20:19:15.346Z,8.42
2023-04-15T20:21:43.727Z,8.42
2023-04-15T20:24:10.865Z,8.42
2023-04-15T20:26:37.382Z,8.41
2023-04-15T20:29:11.637Z,8.40
2023-04-15T20:31:38.171Z,8.40
2023-04-15T20:34:04.793Z,8.38
2023-04-15T20:36:33.633Z,8.37
2023-04-15T20:39:00.356Z,8.36
2023-04-15T20:41:29.131Z,8.37
2023-04-15T20:43:55.821Z,8.39
2023-04-15T20:46:22.757Z,8.39
2023-04-15T20:48:50.571Z,8.40
2023-04-15T20:51:18.828Z,8.39
2023-04-15T20:53:49.766Z,8.39
2023-04-15T20:56:16.324Z,8.37
2023-04-15T20:58:42.927Z,8.36
2023-04-15T21:01:09.533Z,8.35
2023-04-15T21:03:36.399Z,8.32
2023-04-15T21:06:07.515Z,8.30
2023-04-15T21:08:33.966Z,8.29
2023-04-15T21:11:00.451Z,8.26
2023-04-15T21:13:27.130Z,8.24
2023-04-15T21:15:54.416Z,8.22
2023-04-15T21:18:23.377Z,8.21
2023-04-15T21:21:02.519Z,8.19
2023-04-15T21:23:31.516Z,8.18
2023-04-15T21:25:58.838Z,8.16
2023-04-15T21:28:28.129Z,8.15
2023-04-15T21:30:54.627Z,8.13
2023-04-15T21:33:21.169Z,8.11
2023-04-15T21:35:52.336Z,8.08
2023-04-15T21:38:19.592Z,8.07
2023-04-15T21:40:49.827Z,8.04
2023-04-15T21:43:18.337Z,8.04
2023-04-15T21:46:00.429Z,8.04
2023-04-15T21:48:33.427Z,8.01
2023-04-15T21:51:01.706Z,8.01
2023-04-15T21:53:30.025Z,8.00
2023-04-15T21:55:58.556Z,7.99
2023-04-15T21:58:25.160Z,8.00
2023-04-15T22:00:52.465Z,7.99
2023-04-15T22:03:21.390Z,7.98
2023-04-15T22:05:48.380Z,7.98
2023-04-15T22:08:15.606Z,7.99
2023-04-15T22:10:42.243Z,7.97
2023-04-15T22:13:11.008Z,7.97
2023-04-15T22:15:37.948Z,7.98
2023-04-15T22:18:08.554Z,7.96
2023-04-15T22:20:35.101Z,7.96
2023-04-15T22:23:03.963Z,7.95
2023-04-15T22:25:35.973Z,7.94
2023-04-15T22:28:03.360Z,7.94
2023-04-15T22:30:29.874Z,7.92
2023-04-15T22:32:56.528Z,7.91
2023-04-15T22:35:23.055Z,7.91
2023-04-15T22:37:49.574Z,7.88
2023-04-15T22:40:16.651Z,7.87
2023-04-15T22:42:43.141Z,7.87
2023-04-15T22:45:10.166Z,7.86
2023-04-15T22:47:36.874Z,7.85
2023-04-15T22:50:03.666Z,7.85
2023-04-15T22:52:31.234Z,7.83
2023-04-15T22:55:00.468Z,7.83
2023-04-15T22:57:28.129Z,7.82
2023-04-15T22:59:54.643Z,7.82
2023-04-15T23:02:21.514Z,7.80
2023-04-15T23:04:48.376Z,7.80
2023-04-15T23:07:14.932Z,7.78
2023-04-15T23:09:46.171Z,7.78
2023-04-15T23:12:13.711Z,7.75
2023-04-15T23:14:40.342Z,7.75
2023-04-15T23:17:06.937Z,7.75
2023-04-15T23:19:33.435Z,7.74
2023-04-15T23:22:03.384Z,7.74
2023-04-15T23:24:30.095Z,7.73
2023-04-15T23:26:57.224Z,7.72
2023-04-15T23:29:23.885Z,7.71
2023-04-15T23:31:51.193Z,7.70
2023-04-15T23:34:19.644Z,7.69
2023-04-15T23:36:46.968Z,7.69
2023-04-15T23:39:13.585Z,7.69
2023-04-15T23:41:40.209Z,7.68
2023-04-15T23:44:07.187Z,7.66
2023-04-15T23:46:42.334Z,7.66
2023-04-15T23:49:08.994Z,7.65
2023-04-15T23:51:35.579Z,7.64
2023-04-15T23:54:04.299Z,7.65
2023-04-15T23:56:31.824Z,7.65
2023-04-15T23:58:58.519Z,7.65
